sensor_id;sensor_type;location;lat;lon;timestamp;P1;durP1;ratioP1;P2;durP2;ratioP2
19705;SDS011;10003;52.506;4.700;2023-04-24T00:02:01;0.60;;;0.60;;
19705;SDS011;10003;52.506;4.700;2023-04-24T00:04:30;0.60;;;0.60;;
19705;SDS011;10003;52.506;4.700;2023-04-24T00:06:59;0.57;;;0.57;;
19705;SDS011;10003;52.506;4.700;2023-04-24T00:09:27;0.60;;;0.60;;
19705;SDS011;10003;52.506;4.700;2023-04-24T00:11:56;0.57;;;0.57;;
19705;SDS011;10003;52.506;4.700;2023-04-24T00:14:24;0.60;;;0.60;;
19705;SDS011;10003;52.506;4.700;2023-04-24T00:16:52;0.50;;;0.50;;
19705;SDS011;10003;52.506;4.700;2023-04-24T00:19:22;0.60;;;0.60;;
19705;SDS011;10003;52.506;4.700;2023-04-24T00:21:51;0.50;;;0.50;;
19705;SDS011;10003;52.506;4.700;2023-04-24T00:24:20;0.60;;;0.60;;
19705;SDS011;10003;52.506;4.700;2023-04-24T00:26:48;0.60;;;0.60;;
19705;SDS011;10003;52.506;4.700;2023-04-24T00:29:17;0.60;;;0.60;;
19705;SDS011;10003;52.506;4.700;2023-04-24T00:31:45;0.60;;;0.60;;
19705;SDS011;10003;52.506;4.700;2023-04-24T00:34:14;0.60;;;0.60;;
19705;SDS011;10003;52.506;4.700;2023-04-24T00:36:43;0.60;;;0.60;;
19705;SDS011;10003;52.506;4.700;2023-04-24T00:39:12;0.60;;;0.60;;
19705;SDS011;10003;52.506;4.700;2023-04-24T00:41:40;0.60;;;0.60;;
19705;SDS011;10003;52.506;4.700;2023-04-24T00:44:09;0.60;;;0.60;;
19705;SDS011;10003;52.506;4.700;2023-04-24T00:46:37;0.60;;;0.60;;
19705;SDS011;10003;52.506;4.700;2023-04-24T00:49:06;0.50;;;0.50;;
19705;SDS011;10003;52.506;4.700;2023-04-24T00:51:34;0.60;;;0.60;;
19705;SDS011;10003;52.506;4.700;2023-04-24T00:54:05;0.57;;;0.57;;
19705;SDS011;10003;52.506;4.700;2023-04-24T00:56:33;0.60;;;0.60;;
19705;SDS011;10003;52.506;4.700;2023-04-24T00:59:02;0.60;;;0.60;;
19705;SDS011;10003;52.506;4.700;2023-04-24T01:01:30;0.50;;;0.50;;
19705;SDS011;10003;52.506;4.700;2023-04-24T01:04:00;0.50;;;0.50;;
19705;SDS011;10003;52.506;4.700;2023-04-24T01:06:29;0.50;;;0.50;;
19705;SDS011;10003;52.506;4.700;2023-04-24T01:08:58;0.60;;;0.60;;
19705;SDS011;10003;52.506;4.700;2023-04-24T01:11:29;0.60;;;0.60;;
19705;SDS011;10003;52.506;4.700;2023-04-24T01:13:58;0.50;;;0.50;;
19705;SDS011;10003;52.506;4.700;2023-04-24T01:16:26;0.60;;;0.60;;
19705;SDS011;10003;52.506;4.700;2023-04-24T01:18:55;0.60;;;0.60;;
19705;SDS011;10003;52.506;4.700;2023-04-24T01:21:23;0.50;;;0.50;;
19705;SDS011;10003;52.506;4.700;2023-04-24T01:23:56;0.50;;;0.50;;
19705;SDS011;10003;52.506;4.700;2023-04-24T01:26:24;0.57;;;0.57;;
19705;SDS011;10003;52.506;4.700;2023-04-24T01:28:53;0.60;;;0.60;;
19705;SDS011;10003;52.506;4.700;2023-04-24T01:31:21;0.60;;;0.60;;
19705;SDS011;10003;52.506;4.700;2023-04-24T01:33:50;0.60;;;0.60;;
19705;SDS011;10003;52.506;4.700;2023-04-24T01:36:19;1.00;;;1.00;;
19705;SDS011;10003;52.506;4.700;2023-04-24T01:38:49;0.60;;;0.60;;
19705;SDS011;10003;52.506;4.700;2023-04-24T01:41:19;0.60;;;0.60;;
19705;SDS011;10003;52.506;4.700;2023-04-24T01:43:48;0.60;;;0.60;;
19705;SDS011;10003;52.506;4.700;2023-04-24T01:46:17;0.60;;;0.60;;
19705;SDS011;10003;52.506;4.700;2023-04-24T01:48:45;0.60;;;0.60;;
19705;SDS011;10003;52.506;4.700;2023-04-24T01:51:13;0.60;;;0.60;;
19705;SDS011;10003;52.506;4.700;2023-04-24T01:53:42;0.60;;;0.60;;
19705;SDS011;10003;52.506;4.700;2023-04-24T01:56:10;0.60;;;0.60;;
19705;SDS011;10003;52.506;4.700;2023-04-24T01:58:40;0.50;;;0.50;;
19705;SDS011;10003;52.506;4.700;2023-04-24T02:01:09;0.60;;;0.60;;
19705;SDS011;10003;52.506;4.700;2023-04-24T02:03:43;0.60;;;0.60;;
19705;SDS011;10003;52.506;4.700;2023-04-24T02:06:12;0.60;;;0.60;;
19705;SDS011;10003;52.506;4.700;2023-04-24T02:08:40;0.60;;;0.60;;
19705;SDS011;10003;52.506;4.700;2023-04-24T02:11:09;0.60;;;0.60;;
19705;SDS011;10003;52.506;4.700;2023-04-24T02:13:37;0.50;;;0.50;;
19705;SDS011;10003;52.506;4.700;2023-04-24T02:16:07;0.60;;;0.60;;
19705;SDS011;10003;52.506;4.700;2023-04-24T02:18:35;0.60;;;0.60;;
19705;SDS011;10003;52.506;4.700;2023-04-24T02:21:04;0.60;;;0.60;;
19705;SDS011;10003;52.506;4.700;2023-04-24T02:23:32;0.60;;;0.60;;
19705;SDS011;10003;52.506;4.700;2023-04-24T02:26:01;0.60;;;0.60;;
19705;SDS011;10003;52.506;4.700;2023-04-24T02:28:29;0.60;;;0.60;;
19705;SDS011;10003;52.506;4.700;2023-04-24T02:30:58;0.60;;;0.60;;
19705;SDS011;10003;52.506;4.700;2023-04-24T02:33:28;0.60;;;0.60;;
19705;SDS011;10003;52.506;4.700;2023-04-24T02:35:56;0.60;;;0.60;;
19705;SDS011;10003;52.506;4.700;2023-04-24T02:38:25;0.60;;;0.60;;
19705;SDS011;10003;52.506;4.700;2023-04-24T02:40:54;0.60;;;0.60;;
19705;SDS011;10003;52.506;4.700;2023-04-24T02:43:22;0.60;;;0.60;;
19705;SDS011;10003;52.506;4.700;2023-04-24T02:45:51;0.60;;;0.60;;
19705;SDS011;10003;52.506;4.700;2023-04-24T02:48:19;0.60;;;0.60;;
19705;SDS011;10003;52.506;4.700;2023-04-24T02:50:49;0.60;;;0.60;;
19705;SDS011;10003;52.506;4.700;2023-04-24T02:53:17;0.60;;;0.60;;
19705;SDS011;10003;52.506;4.700;2023-04-24T02:55:46;0.60;;;0.60;;
19705;SDS011;10003;52.506;4.700;2023-04-24T02:58:14;0.60;;;0.60;;
19705;SDS011;10003;52.506;4.700;2023-04-24T03:00:43;0.60;;;0.60;;
19705;SDS011;10003;52.506;4.700;2023-04-24T03:03:11;0.60;;;0.60;;
19705;SDS011;10003;52.506;4.700;2023-04-24T03:05:40;0.60;;;0.60;;
19705;SDS011;10003;52.506;4.700;2023-04-24T03:08:10;0.57;;;0.57;;
19705;SDS011;10003;52.506;4.700;2023-04-24T03:10:39;0.60;;;0.60;;
19705;SDS011;10003;52.506;4.700;2023-04-24T03:13:07;0.60;;;0.60;;
19705;SDS011;10003;52.506;4.700;2023-04-24T03:15:35;0.60;;;0.60;;
19705;SDS011;10003;52.506;4.700;2023-04-24T03:18:04;0.60;;;0.60;;
19705;SDS011;10003;52.506;4.700;2023-04-24T03:20:32;0.60;;;0.60;;
19705;SDS011;10003;52.506;4.700;2023-04-24T03:23:03;0.60;;;0.60;;
19705;SDS011;10003;52.506;4.700;2023-04-24T03:25:32;0.60;;;0.60;;
19705;SDS011;10003;52.506;4.700;2023-04-24T03:28:01;0.50;;;0.50;;
19705;SDS011;10003;52.506;4.700;2023-04-24T03:30:29;0.60;;;0.60;;
19705;SDS011;10003;52.506;4.700;2023-04-24T03:32:58;0.53;;;0.53;;
19705;SDS011;10003;52.506;4.700;2023-04-24T03:35:26;0.60;;;0.60;;
19705;SDS011;10003;52.506;4.700;2023-04-24T03:37:55;0.60;;;0.60;;
19705;SDS011;10003;52.506;4.700;2023-04-24T03:40:23;0.60;;;0.60;;
19705;SDS011;10003;52.506;4.700;2023-04-24T03:42:53;0.60;;;0.60;;
19705;SDS011;10003;52.506;4.700;2023-04-24T03:45:21;0.60;;;0.60;;
19705;SDS011;10003;52.506;4.700;2023-04-24T03:47:50;0.60;;;0.60;;
19705;SDS011;10003;52.506;4.700;2023-04-24T03:50:19;0.60;;;0.60;;
19705;SDS011;10003;52.506;4.700;2023-04-24T03:52:47;0.70;;;0.70;;
19705;SDS011;10003;52.506;4.700;2023-04-24T03:55:16;0.50;;;0.50;;
19705;SDS011;10003;52.506;4.700;2023-04-24T03:57:44;0.63;;;0.63;;
19705;SDS011;10003;52.506;4.700;2023-04-24T04:00:14;0.70;;;0.70;;
19705;SDS011;10003;52.506;4.700;2023-04-24T04:02:43;0.60;;;0.60;;
19705;SDS011;10003;52.506;4.700;2023-04-24T04:05:11;0.60;;;0.60;;
19705;SDS011;10003;52.506;4.700;2023-04-24T04:07:40;0.60;;;0.60;;
19705;SDS011;10003;52.506;4.700;2023-04-24T04:10:08;0.50;;;0.50;;
19705;SDS011;10003;52.506;4.700;2023-04-24T04:12:36;0.60;;;0.60;;
19705;SDS011;10003;52.506;4.700;2023-04-24T04:15:05;0.60;;;0.60;;
19705;SDS011;10003;52.506;4.700;2023-04-24T04:17:35;0.60;;;0.60;;
19705;SDS011;10003;52.506;4.700;2023-04-24T04:20:05;0.60;;;0.60;;
19705;SDS011;10003;52.506;4.700;2023-04-24T04:22:36;0.50;;;0.50;;
19705;SDS011;10003;52.506;4.700;2023-04-24T04:25:04;0.60;;;0.60;;
19705;SDS011;10003;52.506;4.700;2023-04-24T04:27:34;0.60;;;0.60;;
19705;SDS011;10003;52.506;4.700;2023-04-24T04:30:03;0.60;;;0.60;;
19705;SDS011;10003;52.506;4.700;2023-04-24T04:32:36;0.60;;;0.60;;
19705;SDS011;10003;52.506;4.700;2023-04-24T04:35:04;0.60;;;0.60;;
19705;SDS011;10003;52.506;4.700;2023-04-24T04:37:33;0.60;;;0.60;;
19705;SDS011;10003;52.506;4.700;2023-04-24T04:40:02;0.60;;;0.60;;
19705;SDS011;10003;52.506;4.700;2023-04-24T04:42:33;0.50;;;0.50;;
19705;SDS011;10003;52.506;4.700;2023-04-24T04:45:01;0.60;;;0.60;;
19705;SDS011;10003;52.506;4.700;2023-04-24T04:47:30;0.70;;;0.70;;
19705;SDS011;10003;52.506;4.700;2023-04-24T04:50:00;0.60;;;0.60;;
19705;SDS011;10003;52.506;4.700;2023-04-24T04:52:30;0.50;;;0.50;;
19705;SDS011;10003;52.506;4.700;2023-04-24T04:54:58;0.53;;;0.53;;
19705;SDS011;10003;52.506;4.700;2023-04-24T04:57:27;0.60;;;0.60;;
19705;SDS011;10003;52.506;4.700;2023-04-24T04:59:56;0.60;;;0.60;;
19705;SDS011;10003;52.506;4.700;2023-04-24T05:02:24;0.60;;;0.60;;
19705;SDS011;10003;52.506;4.700;2023-04-24T05:04:53;0.60;;;0.60;;
19705;SDS011;10003;52.506;4.700;2023-04-24T05:07:23;0.70;;;0.70;;
19705;SDS011;10003;52.506;4.700;2023-04-24T05:09:52;0.60;;;0.60;;
19705;SDS011;10003;52.506;4.700;2023-04-24T05:12:20;0.70;;;0.70;;
19705;SDS011;10003;52.506;4.700;2023-04-24T05:14:48;0.60;;;0.60;;
19705;SDS011;10003;52.506;4.700;2023-04-24T05:17:17;0.63;;;0.63;;
19705;SDS011;10003;52.506;4.700;2023-04-24T05:19:45;0.70;;;0.70;;
19705;SDS011;10003;52.506;4.700;2023-04-24T05:22:14;1.17;;;1.17;;
19705;SDS011;10003;52.506;4.700;2023-04-24T05:24:46;0.70;;;0.70;;
19705;SDS011;10003;52.506;4.700;2023-04-24T05:27:16;1.10;;;1.10;;
19705;SDS011;10003;52.506;4.700;2023-04-24T05:29:45;0.70;;;0.70;;
19705;SDS011;10003;52.506;4.700;2023-04-24T05:32:13;0.63;;;0.63;;
19705;SDS011;10003;52.506;4.700;2023-04-24T05:34:41;0.60;;;0.60;;
19705;SDS011;10003;52.506;4.700;2023-04-24T05:37:10;0.70;;;0.70;;
19705;SDS011;10003;52.506;4.700;2023-04-24T05:39:38;0.60;;;0.60;;
19705;SDS011;10003;52.506;4.700;2023-04-24T05:42:09;1.07;;;1.07;;
19705;SDS011;10003;52.506;4.700;2023-04-24T05:44:38;0.67;;;0.67;;
19705;SDS011;10003;52.506;4.700;2023-04-24T05:47:06;0.70;;;0.70;;
19705;SDS011;10003;52.506;4.700;2023-04-24T05:49:34;0.70;;;0.70;;
19705;SDS011;10003;52.506;4.700;2023-04-24T05:52:03;0.70;;;0.70;;
19705;SDS011;10003;52.506;4.700;2023-04-24T05:54:32;0.63;;;0.63;;
19705;SDS011;10003;52.506;4.700;2023-04-24T05:57:01;0.80;;;0.80;;
19705;SDS011;10003;52.506;4.700;2023-04-24T05:59:36;0.70;;;0.70;;
19705;SDS011;10003;52.506;4.700;2023-04-24T06:02:04;0.60;;;0.60;;
19705;SDS011;10003;52.506;4.700;2023-04-24T06:04:33;0.60;;;0.60;;
19705;SDS011;10003;52.506;4.700;2023-04-24T06:07:02;0.60;;;0.60;;
19705;SDS011;10003;52.506;4.700;2023-04-24T06:09:30;0.70;;;0.70;;
19705;SDS011;10003;52.506;4.700;2023-04-24T06:11:58;22.90;;;13.83;;
19705;SDS011;10003;52.506;4.700;2023-04-24T06:14:27;28.93;;;15.17;;
19705;SDS011;10003;52.506;4.700;2023-04-24T06:16:57;0.60;;;0.60;;
19705;SDS011;10003;52.506;4.700;2023-04-24T06:19:25;0.60;;;0.60;;
19705;SDS011;10003;52.506;4.700;2023-04-24T06:21:54;0.80;;;0.80;;
19705;SDS011;10003;52.506;4.700;2023-04-24T06:24:24;0.60;;;0.60;;
19705;SDS011;10003;52.506;4.700;2023-04-24T06:26:55;0.70;;;0.70;;
19705;SDS011;10003;52.506;4.700;2023-04-24T06:29:25;0.60;;;0.60;;
19705;SDS011;10003;52.506;4.700;2023-04-24T06:31:53;27.60;;;14.30;;
19705;SDS011;10003;52.506;4.700;2023-04-24T06:34:23;30.30;;;14.90;;
19705;SDS011;10003;52.506;4.700;2023-04-24T06:36:54;12.17;;;7.73;;
19705;SDS011;10003;52.506;4.700;2023-04-24T06:39:23;12.20;;;5.73;;
19705;SDS011;10003;52.506;4.700;2023-04-24T06:41:51;18.00;;;9.93;;
19705;SDS011;10003;52.506;4.700;2023-04-24T06:44:20;24.43;;;12.67;;
19705;SDS011;10003;52.506;4.700;2023-04-24T06:46:48;29.27;;;14.73;;
19705;SDS011;10003;52.506;4.700;2023-04-24T06:49:17;30.23;;;10.97;;
19705;SDS011;10003;52.506;4.700;2023-04-24T06:51:47;32.87;;;12.80;;
19705;SDS011;10003;52.506;4.700;2023-04-24T06:54:16;23.03;;;9.83;;
19705;SDS011;10003;52.506;4.700;2023-04-24T06:56:44;29.03;;;12.00;;
19705;SDS011;10003;52.506;4.700;2023-04-24T06:59:14;34.27;;;15.00;;
19705;SDS011;10003;52.506;4.700;2023-04-24T07:01:42;27.17;;;10.80;;
19705;SDS011;10003;52.506;4.700;2023-04-24T07:04:11;49.87;;;14.40;;
19705;SDS011;10003;52.506;4.700;2023-04-24T07:06:40;22.87;;;9.60;;
19705;SDS011;10003;52.506;4.700;2023-04-24T07:09:10;15.80;;;4.80;;
19705;SDS011;10003;52.506;4.700;2023-04-24T07:11:39;15.33;;;7.50;;
19705;SDS011;10003;52.506;4.700;2023-04-24T07:14:08;21.80;;;8.77;;
19705;SDS011;10003;52.506;4.700;2023-04-24T07:16:36;31.60;;;8.30;;
19705;SDS011;10003;52.506;4.700;2023-04-24T07:19:05;27.77;;;8.83;;
19705;SDS011;10003;52.506;4.700;2023-04-24T07:21:33;15.23;;;8.17;;
19705;SDS011;10003;52.506;4.700;2023-04-24T07:24:02;23.53;;;7.27;;
19705;SDS011;10003;52.506;4.700;2023-04-24T07:26:31;28.60;;;7.70;;
19705;SDS011;10003;52.506;4.700;2023-04-24T07:29:00;13.50;;;7.57;;
19705;SDS011;10003;52.506;4.700;2023-04-24T07:31:28;9.13;;;5.80;;
19705;SDS011;10003;52.506;4.700;2023-04-24T07:33:57;26.40;;;6.70;;
19705;SDS011;10003;52.506;4.700;2023-04-24T07:36:25;20.27;;;7.63;;
19705;SDS011;10003;52.506;4.700;2023-04-24T07:38:54;9.77;;;4.87;;
19705;SDS011;10003;52.506;4.700;2023-04-24T07:41:23;19.57;;;5.07;;
19705;SDS011;10003;52.506;4.700;2023-04-24T07:43:55;14.30;;;3.37;;
19705;SDS011;10003;52.506;4.700;2023-04-24T07:46:23;19.97;;;8.83;;
19705;SDS011;10003;52.506;4.700;2023-04-24T07:48:53;19.73;;;6.00;;
19705;SDS011;10003;52.506;4.700;2023-04-24T07:51:39;14.60;;;5.97;;
19705;SDS011;10003;52.506;4.700;2023-04-24T07:54:08;20.60;;;5.90;;
19705;SDS011;10003;52.506;4.700;2023-04-24T07:56:36;30.07;;;5.63;;
19705;SDS011;10003;52.506;4.700;2023-04-24T07:59:07;14.07;;;4.63;;
19705;SDS011;10003;52.506;4.700;2023-04-24T08:01:36;13.97;;;5.80;;
19705;SDS011;10003;52.506;4.700;2023-04-24T08:04:04;13.20;;;5.57;;
19705;SDS011;10003;52.506;4.700;2023-04-24T08:06:33;16.73;;;4.97;;
19705;SDS011;10003;52.506;4.700;2023-04-24T08:09:01;7.43;;;3.70;;
19705;SDS011;10003;52.506;4.700;2023-04-24T08:11:30;24.47;;;6.07;;
19705;SDS011;10003;52.506;4.700;2023-04-24T08:13:59;12.90;;;5.80;;
19705;SDS011;10003;52.506;4.700;2023-04-24T08:16:28;23.17;;;4.67;;
19705;SDS011;10003;52.506;4.700;2023-04-24T08:18:57;10.03;;;4.63;;
19705;SDS011;10003;52.506;4.700;2023-04-24T08:21:25;4.57;;;2.53;;
19705;SDS011;10003;52.506;4.700;2023-04-24T08:23:54;6.37;;;2.73;;
19705;SDS011;10003;52.506;4.700;2023-04-24T08:26:22;4.30;;;2.90;;
19705;SDS011;10003;52.506;4.700;2023-04-24T08:28:50;9.43;;;4.43;;
19705;SDS011;10003;52.506;4.700;2023-04-24T08:31:19;10.63;;;4.07;;
19705;SDS011;10003;52.506;4.700;2023-04-24T08:33:50;12.80;;;5.20;;
19705;SDS011;10003;52.506;4.700;2023-04-24T08:36:18;14.63;;;5.33;;
19705;SDS011;10003;52.506;4.700;2023-04-24T08:38:48;10.27;;;5.13;;
19705;SDS011;10003;52.506;4.700;2023-04-24T08:41:17;13.57;;;4.80;;
19705;SDS011;10003;52.506;4.700;2023-04-24T08:43:47;11.57;;;3.83;;
19705;SDS011;10003;52.506;4.700;2023-04-24T08:46:16;6.53;;;3.37;;
19705;SDS011;10003;52.506;4.700;2023-04-24T08:48:44;7.30;;;3.43;;
19705;SDS011;10003;52.506;4.700;2023-04-24T08:51:14;13.37;;;3.73;;
19705;SDS011;10003;52.506;4.700;2023-04-24T08:53:43;5.70;;;3.60;;
19705;SDS011;10003;52.506;4.700;2023-04-24T08:56:11;6.43;;;3.13;;
19705;SDS011;10003;52.506;4.700;2023-04-24T08:58:40;5.97;;;3.23;;
19705;SDS011;10003;52.506;4.700;2023-04-24T09:01:08;10.27;;;4.80;;
19705;SDS011;10003;52.506;4.700;2023-04-24T09:03:37;4.00;;;2.67;;
19705;SDS011;10003;52.506;4.700;2023-04-24T09:06:06;9.40;;;3.73;;
19705;SDS011;10003;52.506;4.700;2023-04-24T09:08:38;6.27;;;2.97;;
19705;SDS011;10003;52.506;4.700;2023-04-24T09:11:07;5.50;;;2.83;;
19705;SDS011;10003;52.506;4.700;2023-04-24T09:13:36;11.27;;;2.63;;
19705;SDS011;10003;52.506;4.700;2023-04-24T09:16:05;5.07;;;3.00;;
19705;SDS011;10003;52.506;4.700;2023-04-24T09:18:34;4.73;;;2.63;;
19705;SDS011;10003;52.506;4.700;2023-04-24T09:21:03;2.03;;;1.90;;
19705;SDS011;10003;52.506;4.700;2023-04-24T09:23:32;8.50;;;3.03;;
19705;SDS011;10003;52.506;4.700;2023-04-24T09:26:02;6.43;;;2.53;;
19705;SDS011;10003;52.506;4.700;2023-04-24T09:28:32;2.83;;;1.43;;
19705;SDS011;10003;52.506;4.700;2023-04-24T09:31:04;5.83;;;2.57;;
19705;SDS011;10003;52.506;4.700;2023-04-24T09:33:33;5.17;;;2.10;;
19705;SDS011;10003;52.506;4.700;2023-04-24T09:36:01;2.30;;;1.57;;
19705;SDS011;10003;52.506;4.700;2023-04-24T09:38:30;2.93;;;1.50;;
19705;SDS011;10003;52.506;4.700;2023-04-24T09:41:01;6.00;;;2.10;;
19705;SDS011;10003;52.506;4.700;2023-04-24T09:43:30;7.97;;;2.73;;
19705;SDS011;10003;52.506;4.700;2023-04-24T09:45:59;1.97;;;1.67;;
19705;SDS011;10003;52.506;4.700;2023-04-24T09:48:33;1.63;;;1.33;;
19705;SDS011;10003;52.506;4.700;2023-04-24T09:51:03;2.40;;;1.57;;
19705;SDS011;10003;52.506;4.700;2023-04-24T09:53:33;6.50;;;1.73;;
19705;SDS011;10003;52.506;4.700;2023-04-24T09:56:06;3.77;;;1.70;;
19705;SDS011;10003;52.506;4.700;2023-04-24T09:58:35;9.83;;;2.23;;
19705;SDS011;10003;52.506;4.700;2023-04-24T10:01:07;6.03;;;2.10;;
19705;SDS011;10003;52.506;4.700;2023-04-24T10:03:36;2.33;;;2.17;;
19705;SDS011;10003;52.506;4.700;2023-04-24T10:06:04;3.20;;;2.03;;
19705;SDS011;10003;52.506;4.700;2023-04-24T10:08:36;1.00;;;0.90;;
19705;SDS011;10003;52.506;4.700;2023-04-24T10:11:06;4.43;;;1.90;;
19705;SDS011;10003;52.506;4.700;2023-04-24T10:13:37;4.77;;;2.03;;
19705;SDS011;10003;52.506;4.700;2023-04-24T10:16:06;2.30;;;1.67;;
19705;SDS011;10003;52.506;4.700;2023-04-24T10:18:35;6.60;;;1.80;;
19705;SDS011;10003;52.506;4.700;2023-04-24T10:21:03;1.77;;;1.40;;
19705;SDS011;10003;52.506;4.700;2023-04-24T10:23:32;3.07;;;1.20;;
19705;SDS011;10003;52.506;4.700;2023-04-24T10:26:01;2.13;;;1.37;;
19705;SDS011;10003;52.506;4.700;2023-04-24T10:28:31;6.80;;;3.37;;
19705;SDS011;10003;52.506;4.700;2023-04-24T10:31:00;2.60;;;1.43;;
19705;SDS011;10003;52.506;4.700;2023-04-24T10:33:29;2.17;;;1.40;;
19705;SDS011;10003;52.506;4.700;2023-04-24T10:35:58;2.97;;;1.70;;
19705;SDS011;10003;52.506;4.700;2023-04-24T10:38:26;3.97;;;1.50;;
19705;SDS011;10003;52.506;4.700;2023-04-24T10:41:06;2.50;;;2.30;;
19705;SDS011;10003;52.506;4.700;2023-04-24T10:43:37;4.70;;;1.67;;
19705;SDS011;10003;52.506;4.700;2023-04-24T10:46:08;1.97;;;1.40;;
19705;SDS011;10003;52.506;4.700;2023-04-24T10:48:41;10.00;;;1.90;;
19705;SDS011;10003;52.506;4.700;2023-04-24T10:51:11;1.33;;;1.23;;
19705;SDS011;10003;52.506;4.700;2023-04-24T10:53:41;2.60;;;1.60;;
19705;SDS011;10003;52.506;4.700;2023-04-24T10:56:09;2.20;;;1.60;;
19705;SDS011;10003;52.506;4.700;2023-04-24T10:58:40;4.03;;;2.70;;
19705;SDS011;10003;52.506;4.700;2023-04-24T11:01:22;4.33;;;1.63;;
19705;SDS011;10003;52.506;4.700;2023-04-24T11:03:54;3.20;;;2.23;;
19705;SDS011;10003;52.506;4.700;2023-04-24T11:06:28;2.03;;;1.77;;
19705;SDS011;10003;52.506;4.700;2023-04-24T11:09:01;7.07;;;1.53;;
19705;SDS011;10003;52.506;4.700;2023-04-24T11:11:30;5.17;;;1.50;;
19705;SDS011;10003;52.506;4.700;2023-04-24T11:14:07;6.37;;;2.23;;
19705;SDS011;10003;52.506;4.700;2023-04-24T11:16:38;6.57;;;2.73;;
19705;SDS011;10003;52.506;4.700;2023-04-24T11:19:07;9.43;;;1.53;;
19705;SDS011;10003;52.506;4.700;2023-04-24T11:21:39;1.93;;;1.53;;
19705;SDS011;10003;52.506;4.700;2023-04-24T11:27:11;7.80;;;2.60;;
19705;SDS011;10003;52.506;4.700;2023-04-24T11:29:43;7.83;;;1.97;;
19705;SDS011;10003;52.506;4.700;2023-04-24T11:32:16;7.63;;;2.13;;
19705;SDS011;10003;52.506;4.700;2023-04-24T11:34:46;3.30;;;2.13;;
19705;SDS011;10003;52.506;4.700;2023-04-24T11:37:15;4.93;;;2.03;;
19705;SDS011;10003;52.506;4.700;2023-04-24T11:39:44;5.50;;;2.20;;
19705;SDS011;10003;52.506;4.700;2023-04-24T11:42:13;5.07;;;2.13;;
19705;SDS011;10003;52.506;4.700;2023-04-24T11:44:44;4.57;;;1.80;;
19705;SDS011;10003;52.506;4.700;2023-04-24T11:47:14;3.40;;;1.80;;
19705;SDS011;10003;52.506;4.700;2023-04-24T11:49:42;5.30;;;2.73;;
19705;SDS011;10003;52.506;4.700;2023-04-24T11:52:11;2.43;;;2.03;;
19705;SDS011;10003;52.506;4.700;2023-04-24T11:54:47;5.83;;;3.10;;
19705;SDS011;10003;52.506;4.700;2023-04-24T11:57:16;7.70;;;3.23;;
19705;SDS011;10003;52.506;4.700;2023-04-24T11:59:49;8.73;;;2.30;;
19705;SDS011;10003;52.506;4.700;2023-04-24T12:02:21;1.67;;;1.60;;
19705;SDS011;10003;52.506;4.700;2023-04-24T12:04:51;8.93;;;3.73;;
19705;SDS011;10003;52.506;4.700;2023-04-24T12:07:20;8.87;;;3.43;;
19705;SDS011;10003;52.506;4.700;2023-04-24T12:09:49;13.57;;;3.63;;
19705;SDS011;10003;52.506;4.700;2023-04-24T12:12:18;10.50;;;3.90;;
19705;SDS011;10003;52.506;4.700;2023-04-24T12:14:52;6.77;;;3.50;;
19705;SDS011;10003;52.506;4.700;2023-04-24T12:17:24;6.00;;;2.77;;
19705;SDS011;10003;52.506;4.700;2023-04-24T12:19:57;9.33;;;3.57;;
19705;SDS011;10003;52.506;4.700;2023-04-24T12:22:26;4.73;;;2.23;;
19705;SDS011;10003;52.506;4.700;2023-04-24T12:24:55;6.13;;;2.60;;
19705;SDS011;10003;52.506;4.700;2023-04-24T12:27:24;7.03;;;2.63;;
19705;SDS011;10003;52.506;4.700;2023-04-24T12:29:55;9.47;;;3.93;;
19705;SDS011;10003;52.506;4.700;2023-04-24T12:32:24;9.00;;;3.33;;
19705;SDS011;10003;52.506;4.700;2023-04-24T12:34:53;6.73;;;2.23;;
19705;SDS011;10003;52.506;4.700;2023-04-24T12:37:23;10.40;;;4.57;;
19705;SDS011;10003;52.506;4.700;2023-04-24T12:40:01;7.67;;;3.93;;
19705;SDS011;10003;52.506;4.700;2023-04-24T12:42:30;6.83;;;2.67;;
19705;SDS011;10003;52.506;4.700;2023-04-24T12:45:00;6.63;;;4.53;;
19705;SDS011;10003;52.506;4.700;2023-04-24T12:47:30;6.00;;;3.33;;
19705;SDS011;10003;52.506;4.700;2023-04-24T12:49:58;8.80;;;3.90;;
19705;SDS011;10003;52.506;4.700;2023-04-24T12:52:28;6.80;;;2.47;;
19705;SDS011;10003;52.506;4.700;2023-04-24T12:54:57;11.70;;;3.33;;
19705;SDS011;10003;52.506;4.700;2023-04-24T12:57:26;7.10;;;2.20;;
19705;SDS011;10003;52.506;4.700;2023-04-24T12:59:55;6.60;;;3.30;;
19705;SDS011;10003;52.506;4.700;2023-04-24T13:02:26;3.40;;;2.27;;
19705;SDS011;10003;52.506;4.700;2023-04-24T13:04:55;10.03;;;2.80;;
19705;SDS011;10003;52.506;4.700;2023-04-24T13:07:24;7.43;;;3.40;;
19705;SDS011;10003;52.506;4.700;2023-04-24T13:09:53;4.53;;;1.73;;
19705;SDS011;10003;52.506;4.700;2023-04-24T13:12:22;10.73;;;2.90;;
19705;SDS011;10003;52.506;4.700;2023-04-24T13:14:52;2.57;;;2.33;;
19705;SDS011;10003;52.506;4.700;2023-04-24T13:17:21;2.90;;;2.40;;
19705;SDS011;10003;52.506;4.700;2023-04-24T13:19:51;6.40;;;2.50;;
19705;SDS011;10003;52.506;4.700;2023-04-24T13:22:20;8.17;;;3.60;;
19705;SDS011;10003;52.506;4.700;2023-04-24T13:24:48;9.70;;;3.87;;
19705;SDS011;10003;52.506;4.700;2023-04-24T13:27:17;5.83;;;2.77;;
19705;SDS011;10003;52.506;4.700;2023-04-24T13:29:45;8.40;;;2.80;;
19705;SDS011;10003;52.506;4.700;2023-04-24T13:32:14;9.80;;;3.10;;
19705;SDS011;10003;52.506;4.700;2023-04-24T13:34:43;10.90;;;3.40;;
19705;SDS011;10003;52.506;4.700;2023-04-24T13:37:13;11.20;;;5.00;;
19705;SDS011;10003;52.506;4.700;2023-04-24T13:39:42;2.83;;;2.17;;
19705;SDS011;10003;52.506;4.700;2023-04-24T13:42:11;12.20;;;2.90;;
19705;SDS011;10003;52.506;4.700;2023-04-24T13:44:40;6.53;;;3.07;;
19705;SDS011;10003;52.506;4.700;2023-04-24T13:47:08;11.13;;;3.70;;
19705;SDS011;10003;52.506;4.700;2023-04-24T13:49:37;9.17;;;4.47;;
19705;SDS011;10003;52.506;4.700;2023-04-24T13:52:05;10.03;;;3.07;;
19705;SDS011;10003;52.506;4.700;2023-04-24T13:54:38;10.53;;;4.13;;
19705;SDS011;10003;52.506;4.700;2023-04-24T13:57:06;16.13;;;5.30;;
19705;SDS011;10003;52.506;4.700;2023-04-24T13:59:35;9.47;;;2.90;;
19705;SDS011;10003;52.506;4.700;2023-04-24T14:02:03;8.03;;;3.13;;
19705;SDS011;10003;52.506;4.700;2023-04-24T14:04:32;8.27;;;3.67;;
19705;SDS011;10003;52.506;4.700;2023-04-24T14:07:01;7.53;;;2.77;;
19705;SDS011;10003;52.506;4.700;2023-04-24T14:09:29;6.20;;;3.13;;
19705;SDS011;10003;52.506;4.700;2023-04-24T14:11:59;15.63;;;3.60;;
19705;SDS011;10003;52.506;4.700;2023-04-24T14:14:29;12.23;;;4.43;;
19705;SDS011;10003;52.506;4.700;2023-04-24T14:16:58;7.43;;;2.97;;
19705;SDS011;10003;52.506;4.700;2023-04-24T14:19:29;7.63;;;3.53;;
19705;SDS011;10003;52.506;4.700;2023-04-24T14:21:58;13.70;;;5.50;;
19705;SDS011;10003;52.506;4.700;2023-04-24T14:24:27;12.83;;;3.60;;
19705;SDS011;10003;52.506;4.700;2023-04-24T14:26:55;8.93;;;2.77;;
19705;SDS011;10003;52.506;4.700;2023-04-24T14:29:28;9.10;;;3.23;;
19705;SDS011;10003;52.506;4.700;2023-04-24T14:31:58;14.67;;;3.40;;
19705;SDS011;10003;52.506;4.700;2023-04-24T14:34:27;6.57;;;4.07;;
19705;SDS011;10003;52.506;4.700;2023-04-24T14:36:56;6.83;;;3.07;;
19705;SDS011;10003;52.506;4.700;2023-04-24T14:39:25;3.87;;;2.73;;
19705;SDS011;10003;52.506;4.700;2023-04-24T14:41:53;10.50;;;3.87;;
19705;SDS011;10003;52.506;4.700;2023-04-24T14:44:22;9.07;;;4.00;;
19705;SDS011;10003;52.506;4.700;2023-04-24T14:46:52;11.27;;;3.37;;
19705;SDS011;10003;52.506;4.700;2023-04-24T14:49:20;5.07;;;2.83;;
19705;SDS011;10003;52.506;4.700;2023-04-24T14:51:50;9.40;;;3.33;;
19705;SDS011;10003;52.506;4.700;2023-04-24T14:54:19;5.07;;;2.60;;
19705;SDS011;10003;52.506;4.700;2023-04-24T14:56:51;5.93;;;2.57;;
19705;SDS011;10003;52.506;4.700;2023-04-24T14:59:19;3.43;;;1.77;;
19705;SDS011;10003;52.506;4.700;2023-04-24T15:01:48;8.40;;;4.10;;